Time;durP1;ratioP1;P1;durP2;ratioP2;P2;SDS_P1;SDS_P2;PMS_P1;PMS_P2;Temp;Humidity;BMP_temperature;BMP_pressure;BME280_temperature;BME280_humidity;BME280_pressure;Samples;Min_cycle;Max_cycle;Signal;HPM_P1;HPM_P2
2022/12/25 00:00:11;;;;;;;0.13;0.13;;;8.30;99.90;;;;;;5050981;28;20185;-62
2022/12/25 00:02:37;;;;;;;0.43;0.43;;;8.30;99.90;;;;;;5050723;28;20592;-63
2022/12/25 00:05:03;;;;;;;1.45;1.10;;;8.40;99.90;;;;;;5051431;28;20188;-63
2022/12/25 00:07:30;;;;;;;0.00;0.00;;;8.40;99.90;;;;;;5051327;28;20193;-63
2022/12/25 00:09:56;;;;;;;1.27;0.95;;;8.40;99.90;;;;;;5051348;28;20633;-63
2022/12/25 00:12:22;;;;;;;0.15;0.15;;;8.40;99.90;;;;;;5050164;28;20274;-63
2022/12/25 00:14:47;;;;;;;0.25;0.25;;;8.40;99.90;;;;;;5051321;28;20217;-62
2022/12/25 00:17:13;;;;;;;0.00;0.00;;;8.50;99.90;;;;;;5051096;28;20174;-63
2022/12/25 00:19:39;;;;;;;0.20;0.20;;;8.40;99.90;;;;;;5051670;28;20220;-63
2022/12/25 00:22:04;;;;;;;0.00;0.00;;;8.40;99.90;;;;;;5049644;28;20200;-63
2022/12/25 00:24:30;;;;;;;0.00;0.00;;;8.50;99.90;;;;;;5051192;28;20173;-63
2022/12/25 00:26:55;;;;;;;0.40;0.25;;;8.50;99.90;;;;;;5051290;28;20212;-63
2022/12/25 00:29:21;;;;;;;0.52;0.20;;;8.50;99.90;;;;;;5051344;28;20192;-63
2022/12/25 00:31:47;;;;;;;0.30;0.25;;;8.50;99.90;;;;;;5051193;28;20546;-63
2022/12/25 00:34:12;;;;;;;0.50;0.40;;;8.50;99.90;;;;;;5047567;28;20236;-62
2022/12/25 00:36:38;;;;;;;0.15;0.15;;;8.60;99.90;;;;;;5050891;28;20648;-63
2022/12/25 00:39:03;;;;;;;0.00;0.00;;;8.60;99.90;;;;;;5051297;28;20173;-63
2022/12/25 00:44:13;;;;;;;0.52;0.52;;;8.50;99.90;;;;;;5048402;28;20184;-63
2022/12/25 00:46:40;;;;;;;0.00;0.00;;;8.50;99.90;;;;;;5050350;28;20186;-63
2022/12/25 00:49:06;;;;;;;0.38;0.38;;;8.50;99.90;;;;;;5051104;28;20184;-63
2022/12/25 00:51:32;;;;;;;0.20;0.20;;;8.50;99.90;;;;;;5051161;28;20181;-63
2022/12/25 00:53:58;;;;;;;0.05;0.05;;;8.50;99.90;;;;;;5044617;28;20212;-63
2022/12/25 00:56:24;;;;;;;0.10;0.10;;;8.60;99.90;;;;;;5050978;28;20269;-62
2022/12/25 00:58:49;;;;;;;0.00;0.00;;;8.50;99.90;;;;;;5050747;28;20181;-62
2022/12/25 01:01:15;;;;;;;0.17;0.17;;;8.50;99.90;;;;;;5051065;28;20669;-62
2022/12/25 01:03:40;;;;;;;0.13;0.13;;;8.60;99.90;;;;;;5050841;28;20204;-62
2022/12/25 01:06:07;;;;;;;0.32;0.32;;;8.60;99.90;;;;;;5050830;28;20251;-63
2022/12/25 01:08:35;;;;;;;0.00;0.00;;;8.60;99.90;;;;;;5050282;28;20378;-62
2022/12/25 01:11:04;;;;;;;0.05;0.05;;;8.60;99.90;;;;;;5051958;28;20188;-62
2022/12/25 01:13:33;;;;;;;0.00;0.00;;;8.60;99.90;;;;;;5052752;28;20256;-63
2022/12/25 01:16:05;;;;;;;0.05;0.05;;;8.60;99.90;;;;;;5054585;28;20178;-63
2022/12/25 01:18:30;;;;;;;0.10;0.10;;;8.60;99.90;;;;;;5054344;28;20188;-63
2022/12/25 01:20:56;;;;;;;0.00;0.00;;;8.60;99.90;;;;;;5054431;28;20177;-62
2022/12/25 01:23:21;;;;;;;0.00;0.00;;;8.60;99.90;;;;;;5054244;28;20181;-63
2022/12/25 01:25:47;;;;;;;0.20;0.20;;;8.60;99.90;;;;;;5054810;28;20192;-62
2022/12/25 01:28:12;;;;;;;0.17;0.17;;;8.60;99.90;;;;;;5052626;28;20220;-63
2022/12/25 01:30:38;;;;;;;3.00;0.28;;;8.60;99.90;;;;;;5054173;28;20182;-62
2022/12/25 01:33:04;;;;;;;0.17;0.17;;;8.60;99.90;;;;;;5040467;28;20292;-63
2022/12/25 01:35:29;;;;;;;0.10;0.10;;;8.60;99.90;;;;;;5054349;28;20212;-62
2022/12/25 01:37:55;;;;;;;0.00;0.00;;;8.60;99.90;;;;;;5053319;28;20207;-62
2022/12/25 01:40:21;;;;;;;0.00;0.00;;;8.70;99.90;;;;;;5055021;28;20181;-62
2022/12/25 01:42:46;;;;;;;0.03;0.03;;;8.70;99.90;;;;;;5054427;28;20189;-62
2022/12/25 01:45:32;;;;;;;0.10;0.10;;;8.70;99.90;;;;;;5054485;28;20268;-62
2022/12/25 01:48:00;;;;;;;0.00;0.00;;;8.70;99.90;;;;;;5054604;28;20184;-63
2022/12/25 01:50:27;;;;;;;0.00;0.00;;;8.80;99.90;;;;;;5054378;28;20170;-62
2022/12/25 01:52:53;;;;;;;0.35;0.35;;;8.80;99.90;;;;;;5053378;28;20430;-63
2022/12/25 01:55:19;;;;;;;0.00;0.00;;;8.80;99.90;;;;;;5054383;28;20193;-62
2022/12/25 01:57:45;;;;;;;0.00;0.00;;;8.80;99.90;;;;;;5054275;28;20243;-62
2022/12/25 02:00:12;;;;;;;0.00;0.00;;;8.80;99.90;;;;;;5053891;28;20654;-62
2022/12/25 02:02:40;;;;;;;0.10;0.10;;;8.80;99.90;;;;;;5054072;28;20190;-62
2022/12/25 02:05:11;;;;;;;0.00;0.00;;;8.80;99.90;;;;;;5053778;28;20181;-62
2022/12/25 02:07:40;;;;;;;0.00;0.00;;;8.90;99.90;;;;;;5051405;28;20195;-62
2022/12/25 02:10:07;;;;;;;0.20;0.20;;;8.90;99.90;;;;;;5053623;28;20633;-62
2022/12/25 02:12:34;;;;;;;0.03;0.03;;;8.90;99.90;;;;;;5052056;28;20225;-63
2022/12/25 02:15:21;;;;;;;0.28;0.28;;;8.90;99.90;;;;;;5050920;28;20698;-63
2022/12/25 02:18:03;;;;;;;0.00;0.00;;;8.90;99.90;;;;;;5053481;28;20640;-62
2022/12/25 02:20:31;;;;;;;0.20;0.20;;;8.90;99.90;;;;;;5053104;28;20533;-62
2022/12/25 02:23:21;;;;;;;0.00;0.00;;;8.90;99.90;;;;;;5052278;28;20217;-62
2022/12/25 02:25:58;;;;;;;0.00;0.00;;;9.00;99.90;;;;;;5053553;28;20178;-62
2022/12/25 02:28:31;;;;;;;0.00;0.00;;;9.00;99.90;;;;;;5052158;28;20601;-62
2022/12/25 02:31:26;;;;;;;0.45;0.32;;;9.00;99.90;;;;;;5053123;28;20181;-62
2022/12/25 02:34:04;;;;;;;0.50;0.20;;;9.00;99.90;;;;;;5052410;28;20738;-62
2022/12/25 02:36:43;;;;;;;0.00;0.00;;;9.00;99.90;;;;;;5052241;28;20644;-62
2022/12/25 02:42:20;;;;;;;0.00;0.00;;;9.00;99.90;;;;;;5053111;28;20538;-62
2022/12/25 03:07:08;;;;;;;0.10;0.10;;;9.20;99.90;;;;;;5052642;28;20197;-61
2022/12/25 03:12:49;;;;;;;0.00;0.00;;;9.10;99.90;;;;;;5048660;28;20678;-62
2022/12/25 03:18:05;;;;;;;0.00;0.00;;;9.10;99.90;;;;;;5052179;28;20196;-63
2022/12/25 03:28:49;;;;;;;0.00;0.00;;;9.10;99.90;;;;;;5052742;28;20192;-63
2022/12/25 03:31:25;;;;;;;0.00;0.00;;;9.20;99.90;;;;;;5052649;28;20216;-63
2022/12/25 03:43:08;;;;;;;0.00;0.00;;;9.10;99.90;;;;;;5052399;28;20177;-62
2022/12/25 04:37:49;;;;;;;0.00;0.00;;;9.20;99.90;;;;;;5051718;28;20180;-63
2022/12/25 04:40:15;;;;;;;0.00;0.00;;;9.20;99.90;;;;;;5051741;28;20193;-63
2022/12/25 04:42:40;;;;;;;0.00;0.00;;;9.30;99.90;;;;;;5051468;28;20588;-63
2022/12/25 04:45:07;;;;;;;0.00;0.00;;;9.30;99.90;;;;;;5030049;28;20178;-63
2022/12/25 04:47:32;;;;;;;0.00;0.00;;;9.30;99.90;;;;;;5035588;28;20712;-63
2022/12/25 04:49:58;;;;;;;0.00;0.00;;;9.30;99.90;;;;;;5051120;28;20181;-63
2022/12/25 04:52:23;;;;;;;0.00;0.00;;;9.30;99.90;;;;;;5055329;28;20215;-63
2022/12/25 04:54:49;;;;;;;0.00;0.00;;;9.30;99.90;;;;;;5055218;28;20212;-63
2022/12/25 04:57:15;;;;;;;0.08;0.08;;;9.40;99.90;;;;;;5055165;28;20211;-63
2022/12/25 04:59:41;;;;;;;0.00;0.00;;;9.40;99.90;;;;;;5055584;28;20242;-63
2022/12/25 05:02:07;;;;;;;0.00;0.00;;;9.40;99.90;;;;;;5055687;28;20181;-63
2022/12/25 05:04:32;;;;;;;0.00;0.00;;;9.40;99.90;;;;;;5055180;28;20181;-63
2022/12/25 05:06:58;;;;;;;0.00;0.00;;;9.40;99.90;;;;;;5055311;28;20602;-63
2022/12/25 05:09:24;;;;;;;0.00;0.00;;;9.40;99.90;;;;;;5055505;28;20260;-63
2022/12/25 05:11:50;;;;;;;0.00;0.00;;;9.40;99.90;;;;;;5055050;28;20288;-63
2022/12/25 05:14:15;;;;;;;0.00;0.00;;;9.40;99.90;;;;;;5055136;28;20220;-63
2022/12/25 05:16:41;;;;;;;0.00;0.00;;;9.40;99.90;;;;;;5055679;28;20269;-63
2022/12/25 05:19:06;;;;;;;0.00;0.00;;;9.40;99.90;;;;;;5055024;28;20193;-63
2022/12/25 05:21:32;;;;;;;0.00;0.00;;;9.40;99.90;;;;;;5055333;28;20174;-63
2022/12/25 05:23:57;;;;;;;0.00;0.00;;;9.40;99.90;;;;;;5055213;28;20170;-63
2022/12/25 05:26:25;;;;;;;0.00;0.00;;;9.40;99.90;;;;;;5054797;28;20186;-63
2022/12/25 05:28:51;;;;;;;0.00;0.00;;;9.40;99.90;;;;;;5054824;28;20605;-63
2022/12/25 05:31:17;;;;;;;0.00;0.00;;;9.40;99.90;;;;;;5055041;28;20189;-63
2022/12/25 05:33:42;;;;;;;0.00;0.00;;;9.40;99.90;;;;;;5054708;28;20688;-63
2022/12/25 05:36:10;;;;;;;0.00;0.00;;;9.40;99.90;;;;;;5054743;28;20192;-63
2022/12/25 05:38:36;;;;;;;0.00;0.00;;;9.40;99.90;;;;;;5054948;28;20646;-63
2022/12/25 05:41:02;;;;;;;0.20;0.20;;;9.40;99.90;;;;;;5054702;28;20177;-63
2022/12/25 05:43:28;;;;;;;0.00;0.00;;;9.40;99.90;;;;;;5054729;28;20213;-63
2022/12/25 05:45:54;;;;;;;0.00;0.00;;;9.40;99.90;;;;;;5054768;28;20210;-63
2022/12/25 05:48:19;;;;;;;0.00;0.00;;;9.40;99.90;;;;;;5054916;28;20618;-63
2022/12/25 05:50:45;;;;;;;0.00;0.00;;;9.30;99.90;;;;;;5054463;28;20205;-63
2022/12/25 05:53:12;;;;;;;0.00;0.00;;;9.30;99.90;;;;;;5052103;28;20612;-63
2022/12/25 05:55:40;;;;;;;0.00;0.00;;;9.20;99.90;;;;;;5054179;28;20196;-63
2022/12/25 05:58:07;;;;;;;0.00;0.00;;;9.20;99.90;;;;;;5051625;28;20760;-63
2022/12/25 06:00:33;;;;;;;0.00;0.00;;;9.20;99.90;;;;;;5054290;28;20227;-63
2022/12/25 06:02:58;;;;;;;0.00;0.00;;;9.10;99.90;;;;;;5054008;28;20181;-63
2022/12/25 06:05:24;;;;;;;0.00;0.00;;;9.10;99.90;;;;;;5053761;28;20195;-63
2022/12/25 06:07:50;;;;;;;0.00;0.00;;;9.20;99.90;;;;;;5054200;28;20216;-63
2022/12/25 06:10:15;;;;;;;0.00;0.00;;;9.20;99.90;;;;;;5053762;28;20188;-63
2022/12/25 06:12:41;;;;;;;0.00;0.00;;;9.20;99.90;;;;;;5053969;28;20270;-63
2022/12/25 06:15:07;;;;;;;0.10;0.10;;;9.30;99.90;;;;;;5054093;28;20276;-63
2022/12/25 06:17:32;;;;;;;0.00;0.00;;;9.30;99.90;;;;;;5054052;28;20184;-63
2022/12/25 06:19:58;;;;;;;0.00;0.00;;;9.30;99.90;;;;;;5054026;28;20185;-63
2022/12/25 06:22:31;;;;;;;0.00;0.00;;;9.40;99.90;;;;;;5054013;28;20188;-64
2022/12/25 06:24:57;;;;;;;0.00;0.00;;;9.40;99.90;;;;;;5053780;28;20182;-63
2022/12/25 06:27:22;;;;;;;0.00;0.00;;;9.40;99.90;;;;;;5053883;28;20264;-63
2022/12/25 06:29:48;;;;;;;0.00;0.00;;;9.40;99.90;;;;;;5052748;28;20185;-63
2022/12/25 06:32:13;;;;;;;0.00;0.00;;;9.50;99.90;;;;;;5053893;28;20196;-63
2022/12/25 06:34:39;;;;;;;0.00;0.00;;;9.50;99.90;;;;;;5053942;28;20357;-62
2022/12/25 06:37:04;;;;;;;0.00;0.00;;;9.50;99.90;;;;;;5053599;28;20174;-63
2022/12/25 06:39:30;;;;;;;0.00;0.00;;;9.50;99.90;;;;;;5053953;28;20628;-63
2022/12/25 06:41:56;;;;;;;0.00;0.00;;;9.40;99.90;;;;;;5053401;28;20177;-63
2022/12/25 06:44:22;;;;;;;0.00;0.00;;;9.40;99.90;;;;;;5053412;28;20199;-63
2022/12/25 06:46:47;;;;;;;0.05;0.05;;;9.40;99.90;;;;;;5053813;28;20252;-62
2022/12/25 06:49:13;;;;;;;0.00;0.00;;;9.40;99.90;;;;;;5053275;28;20694;-63
2022/12/25 06:51:38;;;;;;;0.00;0.00;;;9.40;99.90;;;;;;5053349;28;20286;-62
2022/12/25 06:54:04;;;;;;;0.00;0.00;;;9.40;99.90;;;;;;5039906;28;20305;-63
2022/12/25 06:56:32;;;;;;;0.13;0.13;;;9.50;99.90;;;;;;5049455;28;20169;-62
2022/12/25 06:59:00;;;;;;;0.00;0.00;;;9.50;99.90;;;;;;5053352;28;20691;-63
2022/12/25 07:01:30;;;;;;;0.00;0.00;;;9.50;99.90;;;;;;5053219;28;20539;-63
2022/12/25 07:04:01;;;;;;;0.00;0.00;;;9.50;99.90;;;;;;5053045;28;20534;-63
2022/12/25 07:06:26;;;;;;;0.00;0.00;;;9.50;99.90;;;;;;5053341;28;20170;-63
2022/12/25 07:08:52;;;;;;;0.00;0.00;;;9.60;99.90;;;;;;5052720;28;20180;-63
2022/12/25 07:11:18;;;;;;;0.00;0.00;;;9.60;99.90;;;;;;5052642;28;20186;-64
2022/12/25 07:13:43;;;;;;;0.15;0.15;;;9.60;99.90;;;;;;5051458;28;20691;-63
2022/12/25 07:16:10;;;;;;;0.00;0.00;;;9.60;99.90;;;;;;5053155;28;20655;-63
2022/12/25 07:18:36;;;;;;;0.00;0.00;;;9.60;99.90;;;;;;5052906;28;20182;-63
2022/12/25 07:21:09;;;;;;;0.00;0.00;;;9.60;99.90;;;;;;5052856;28;20679;-64
2022/12/25 07:23:35;;;;;;;0.00;0.00;;;9.60;99.90;;;;;;5052945;28;20669;-64
2022/12/25 07:26:01;;;;;;;0.25;0.08;;;9.60;99.90;;;;;;5052612;28;20239;-63
2022/12/25 07:28:27;;;;;;;0.00;0.00;;;9.60;99.90;;;;;;5057251;28;20182;-64
2022/12/25 07:30:52;;;;;;;0.00;0.00;;;9.60;99.90;;;;;;5053313;28;20679;-64
2022/12/25 07:33:18;;;;;;;0.00;0.00;;;9.60;99.90;;;;;;5052559;28;20197;-64
2022/12/25 07:35:44;;;;;;;0.00;0.00;;;9.70;99.90;;;;;;5052885;28;20186;-63
2022/12/25 07:38:10;;;;;;;0.00;0.00;;;9.70;99.90;;;;;;5052747;28;20207;-63
2022/12/25 07:40:36;;;;;;;0.00;0.00;;;9.70;99.90;;;;;;5052766;28;20231;-64
2022/12/25 07:43:01;;;;;;;0.03;0.03;;;9.70;99.90;;;;;;5052411;28;20621;-64
2022/12/25 07:45:27;;;;;;;0.00;0.00;;;9.80;99.90;;;;;;5052544;28;20213;-64
2022/12/25 07:47:52;;;;;;;0.00;0.00;;;9.80;99.90;;;;;;5052121;28;20195;-64
2022/12/25 07:50:18;;;;;;;0.00;0.00;;;9.80;99.90;;;;;;5052381;28;20256;-63
2022/12/25 07:52:45;;;;;;;0.00;0.00;;;9.80;99.90;;;;;;5049709;28;20208;-63
2022/12/25 07:55:11;;;;;;;0.03;0.03;;;9.80;99.90;;;;;;5043749;28;20599;-64
2022/12/25 07:57:37;;;;;;;0.00;0.00;;;9.90;99.90;;;;;;5051132;28;20178;-65
2022/12/25 08:00:04;;;;;;;0.00;0.00;;;9.90;99.90;;;;;;5051861;28;20184;-64
2022/12/25 08:02:30;;;;;;;0.00;0.00;;;9.90;99.90;;;;;;5052138;28;20177;-63
2022/12/25 08:04:55;;;;;;;0.70;0.20;;;10.00;99.90;;;;;;5052089;28;20230;-65
2022/12/25 08:07:21;;;;;;;0.00;0.00;;;10.00;99.90;;;;;;5051971;28;20644;-65
2022/12/25 08:09:47;;;;;;;0.00;0.00;;;10.00;99.90;;;;;;5052138;28;20667;-64
2022/12/25 08:12:12;;;;;;;0.00;0.00;;;10.00;99.90;;;;;;5050852;28;20308;-62
2022/12/25 08:14:38;;;;;;;0.00;0.00;;;10.10;99.90;;;;;;5051571;28;20216;-63
2022/12/25 08:17:04;;;;;;;0.00;0.00;;;10.20;99.90;;;;;;5051628;28;20193;-65
2022/12/25 08:19:29;;;;;;;0.08;0.08;;;10.30;99.90;;;;;;5051742;28;20185;-62
2022/12/25 08:21:55;;;;;;;0.00;0.00;;;10.40;99.90;;;;;;5050624;28;20255;-65
2022/12/25 08:24:21;;;;;;;0.00;0.00;;;10.50;99.90;;;;;;5051315;28;20268;-64
2022/12/25 08:26:47;;;;;;;0.03;0.03;;;10.60;99.90;;;;;;5051561;28;20308;-61
2022/12/25 08:29:13;;;;;;;0.00;0.00;;;10.70;99.90;;;;;;5051819;28;20628;-64
2022/12/25 08:31:41;;;;;;;0.05;0.05;;;10.80;99.90;;;;;;5050608;28;20181;-60
2022/12/25 08:34:07;;;;;;;0.00;0.00;;;10.90;99.90;;;;;;5053580;28;20206;-61
2022/12/25 08:36:32;;;;;;;0.00;0.00;;;10.90;99.90;;;;;;5051556;28;20189;-60
2022/12/25 08:38:58;;;;;;;0.00;0.00;;;10.90;99.90;;;;;;5051615;28;20253;-61
2022/12/25 08:41:24;;;;;;;0.00;0.00;;;11.00;99.90;;;;;;5051253;28;20177;-60
2022/12/25 08:43:49;;;;;;;0.00;0.00;;;11.00;99.90;;;;;;5051681;28;20181;-62
2022/12/25 08:46:15;;;;;;;0.00;0.00;;;11.00;99.90;;;;;;5051262;28;20177;-60
2022/12/25 08:48:42;;;;;;;0.03;0.03;;;11.00;99.90;;;;;;5051428;28;20525;-63
2022/12/25 08:51:13;;;;;;;0.00;0.00;;;11.00;99.90;;;;;;5051191;28;20192;-61
2022/12/25 08:53:42;;;;;;;0.00;0.00;;;11.20;99.90;;;;;;5050067;28;20209;-61
2022/12/25 08:56:08;;;;;;;0.00;0.00;;;11.30;99.90;;;;;;5048067;28;20197;-60
2022/12/25 08:58:34;;;;;;;0.00;0.00;;;11.50;99.90;;;;;;5051286;28;20189;-60
2022/12/25 09:00:59;;;;;;;0.00;0.00;;;11.70;99.90;;;;;;5051049;28;20247;-64
2022/12/25 09:03:25;;;;;;;0.00;0.00;;;11.90;99.90;;;;;;5050940;28;20225;-63
2022/12/25 09:05:52;;;;;;;0.00;0.00;;;12.10;99.90;;;;;;5051606;28;20174;-64
2022/12/25 09:08:19;;;;;;;0.00;0.00;;;12.20;99.90;;;;;;5051817;28;20204;-63
2022/12/25 09:10:44;;;;;;;0.00;0.00;;;12.40;99.90;;;;;;5051611;28;20180;-63
2022/12/25 09:13:11;;;;;;;0.00;0.00;;;12.50;99.90;;;;;;5052646;28;20226;-64
2022/12/25 09:15:38;;;;;;;0.00;0.00;;;12.60;99.90;;;;;;5051536;28;20219;-64
2022/12/25 09:18:04;;;;;;;0.00;0.00;;;12.60;99.90;;;;;;5051613;28;20644;-64
2022/12/25 09:20:29;;;;;;;0.00;0.00;;;12.70;99.90;;;;;;5049592;28;20182;-64
2022/12/25 09:22:55;;;;;;;0.00;0.00;;;12.80;99.90;;;;;;5051296;28;20170;-64
2022/12/25 09:25:20;;;;;;;0.00;0.00;;;12.90;99.90;;;;;;5051438;28;20173;-63
2022/12/25 09:27:46;;;;;;;0.00;0.00;;;12.90;99.90;;;;;;5051324;28;20228;-63
2022/12/25 09:30:11;;;;;;;0.00;0.00;;;12.90;99.90;;;;;;5050901;28;20216;-64
2022/12/25 09:32:39;;;;;;;0.15;0.15;;;13.00;99.90;;;;;;5053345;28;20633;-64
2022/12/25 09:35:05;;;;;;;0.00;0.00;;;13.10;99.90;;;;;;5054164;28;20613;-63
2022/12/25 09:37:31;;;;;;;0.00;0.00;;;13.10;99.90;;;;;;5053866;28;20173;-63
2022/12/25 09:39:56;;;;;;;0.00;0.00;;;13.20;99.90;;;;;;5053853;28;20254;-64
2022/12/25 09:42:27;;;;;;;0.00;0.00;;;13.20;99.90;;;;;;5055040;28;20177;-64
2022/12/25 09:45:01;;;;;;;0.00;0.00;;;13.20;99.90;;;;;;5052983;28;20182;-64
2022/12/25 09:47:30;;;;;;;0.00;0.00;;;13.20;99.90;;;;;;5054668;28;20188;-63
2022/12/25 09:50:05;;;;;;;0.00;0.00;;;13.30;99.90;;;;;;5054362;28;20701;-63
2022/12/25 09:52:38;;;;;;;0.00;0.00;;;13.30;99.90;;;;;;5054171;28;20215;-64
2022/12/25 09:55:09;;;;;;;0.00;0.00;;;13.40;99.90;;;;;;5038599;28;20304;-63
2022/12/25 09:57:35;;;;;;;0.00;0.00;;;13.60;99.90;;;;;;5054590;28;20220;-63
2022/12/25 10:00:00;;;;;;;0.00;0.00;;;13.70;99.90;;;;;;5052917;28;20588;-66
2022/12/25 10:03:03;;;;;;;0.00;0.00;;;13.80;99.90;;;;;;5054186;28;20174;-63
2022/12/25 10:05:46;;;;;;;0.00;0.00;;;13.80;99.90;;;;;;5053274;28;20523;-63
2022/12/25 10:08:29;;;;;;;0.00;0.00;;;13.80;99.90;;;;;;5044395;28;20251;-64
2022/12/25 10:11:24;;;;;;;0.00;0.00;;;13.90;99.90;;;;;;5054146;28;20193;-64
2022/12/25 10:14:07;;;;;;;0.00;0.00;;;13.90;99.90;;;;;;5053902;28;20223;-64
2022/12/25 10:16:45;;;;;;;0.00;0.00;;;14.00;99.90;;;;;;5054310;28;20656;-64
2022/12/25 10:19:42;;;;;;;0.08;0.08;;;14.00;99.90;;;;;;5053721;28;20177;-64
2022/12/25 10:22:36;;;;;;;0.00;0.00;;;14.10;99.90;;;;;;5033157;28;20244;-64
2022/12/25 10:25:03;;;;;;;0.00;0.00;;;14.20;99.90;;;;;;5046438;28;20177;-64
2022/12/25 10:27:38;;;;;;;0.00;0.00;;;14.20;99.90;;;;;;5054384;28;20185;-64
2022/12/25 10:30:15;;;;;;;0.00;0.00;;;14.20;99.90;;;;;;5053267;28;20216;-64
2022/12/25 10:32:43;;;;;;;0.00;0.00;;;14.20;99.90;;;;;;5053874;28;20204;-63
2022/12/25 10:35:14;;;;;;;0.00;0.00;;;14.20;99.90;;;;;;5052592;28;20787;-64
2022/12/25 10:37:42;;;;;;;0.00;0.00;;;14.20;99.90;;;;;;5051845;28;20203;-63
2022/12/25 10:40:23;;;;;;;0.00;0.00;;;14.30;99.90;;;;;;5054181;28;20188;-64
2022/12/25 10:42:54;;;;;;;0.00;0.00;;;14.40;99.90;;;;;;5053403;28;20185;-64
2022/12/25 10:45:20;;;;;;;0.00;0.00;;;14.40;99.90;;;;;;5068089;28;20169;-64
2022/12/25 10:47:46;;;;;;;0.00;0.00;;;14.50;99.90;;;;;;5053468;28;20284;-63
2022/12/25 10:50:23;;;;;;;0.00;0.00;;;14.70;99.90;;;;;;5053715;28;20188;-63
2022/12/25 10:53:00;;;;;;;0.00;0.00;;;14.90;99.90;;;;;;5051980;28;20220;-64
2022/12/25 10:55:26;;;;;;;0.00;0.00;;;14.90;99.90;;;;;;5053754;28;20272;-64
2022/12/25 10:57:51;;;;;;;0.10;0.10;;;15.00;99.90;;;;;;5051941;28;20268;-64
2022/12/25 11:00:26;;;;;;;0.00;0.00;;;15.00;99.90;;;;;;5052454;28;20228;-64
2022/12/25 11:02:52;;;;;;;0.00;0.00;;;15.10;99.90;;;;;;5053461;28;20177;-64
2022/12/25 11:05:34;;;;;;;0.00;0.00;;;15.20;99.90;;;;;;5053033;28;20193;-63
2022/12/25 11:08:01;;;;;;;0.00;0.00;;;15.30;99.90;;;;;;5052841;28;20181;-63
2022/12/25 11:10:34;;;;;;;0.00;0.00;;;15.30;99.90;;;;;;5052702;28;20232;-64
2022/12/25 11:13:01;;;;;;;0.00;0.00;;;15.30;99.90;;;;;;5052636;28;20217;-64
2022/12/25 11:15:35;;;;;;;0.00;0.00;;;15.40;99.90;;;;;;5052572;28;20510;-63
2022/12/25 11:18:02;;;;;;;0.10;0.10;;;15.40;99.90;;;;;;5052470;28;20173;-64
2022/12/25 11:20:28;;;;;;;0.00;0.00;;;15.40;99.90;;;;;;5052695;28;20177;-64
2022/12/25 11:22:54;;;;;;;0.00;0.00;;;15.40;99.90;;;;;;5051871;28;20580;-63
2022/12/25 11:25:26;;;;;;;0.00;0.00;;;15.30;99.90;;;;;;5051633;28;20180;-64
2022/12/25 11:28:01;;;;;;;0.00;0.00;;;15.30;99.90;;;;;;5050617;28;20219;-64
2022/12/25 11:30:29;;;;;;;0.00;0.00;;;15.30;99.90;;;;;;5055355;28;20699;-64
2022/12/25 11:32:58;;;;;;;0.00;0.00;;;15.30;99.90;;;;;;5052083;28;20201;-63
2022/12/25 11:35:29;;;;;;;0.00;0.00;;;15.40;99.90;;;;;;5053228;28;20178;-63
2022/12/25 11:37:54;;;;;;;0.00;0.00;;;15.50;99.90;;;;;;5052857;28;20180;-64
2022/12/25 11:40:28;;;;;;;0.00;0.00;;;15.60;99.90;;;;;;5052750;28;20260;-64
2022/12/25 11:43:08;;;;;;;0.00;0.00;;;15.80;99.90;;;;;;5052767;28;20235;-64
2022/12/25 11:45:38;;;;;;;0.00;0.00;;;15.80;99.90;;;;;;5052339;28;20523;-63
2022/12/25 11:48:16;;;;;;;0.00;0.00;;;15.90;99.90;;;;;;5052160;28;20186;-63
2022/12/25 11:50:50;;;;;;;0.00;0.00;;;15.90;99.90;;;;;;5039801;28;20185;-63
2022/12/25 11:53:27;;;;;;;0.00;0.00;;;15.90;99.90;;;;;;5052166;28;20279;-63
2022/12/25 11:55:58;;;;;;;0.00;0.00;;;16.00;99.90;;;;;;5051553;28;20203;-64
2022/12/25 11:58:39;;;;;;;0.00;0.00;;;16.00;99.90;;;;;;5051078;28;20170;-64
2022/12/25 12:01:14;;;;;;;0.00;0.00;;;16.00;99.90;;;;;;5032591;28;20202;-63
2022/12/25 12:03:42;;;;;;;0.00;0.00;;;16.00;99.90;;;;;;5047616;28;20207;-62
2022/12/25 12:06:27;;;;;;;0.00;0.00;;;16.00;99.90;;;;;;5052246;28;20185;-64
2022/12/25 12:09:00;;;;;;;0.00;0.00;;;16.00;99.90;;;;;;5052046;28;20184;-63
2022/12/25 12:11:36;;;;;;;0.00;0.00;;;15.90;99.90;;;;;;5052105;28;20216;-64
2022/12/25 12:14:11;;;;;;;0.00;0.00;;;15.90;99.90;;;;;;5051800;28;20219;-63
2022/12/25 12:16:37;;;;;;;0.00;0.00;;;15.80;99.90;;;;;;5051875;28;20193;-63
2022/12/25 12:19:26;;;;;;;0.00;0.00;;;15.90;99.90;;;;;;5051880;28;20235;-63
2022/12/25 12:21:57;;;;;;;0.00;0.00;;;16.00;99.90;;;;;;5051438;28;20196;-63
2022/12/25 12:24:27;;;;;;;0.00;0.00;;;16.10;99.90;;;;;;5052023;28;20181;-63
2022/12/25 12:27:16;;;;;;;0.00;0.00;;;16.10;99.90;;;;;;5050662;28;20707;-63
2022/12/25 12:29:49;;;;;;;0.00;0.00;;;16.10;99.90;;;;;;5051897;28;20181;-63
2022/12/25 12:32:43;;;;;;;0.00;0.00;;;16.10;99.90;;;;;;5050764;28;20281;-63
2022/12/25 12:35:29;;;;;;;0.00;0.00;;;16.00;99.90;;;;;;5051659;28;20209;-63
2022/12/25 12:38:05;;;;;;;0.00;0.00;;;16.00;99.90;;;;;;5052004;28;20170;-62
2022/12/25 12:40:38;;;;;;;0.00;0.00;;;16.00;99.90;;;;;;5051928;28;20184;-63
2022/12/25 12:43:06;;;;;;;0.00;0.00;;;15.90;99.90;;;;;;5051928;28;20184;-62
2022/12/25 12:45:36;;;;;;;0.00;0.00;;;15.90;99.90;;;;;;5051811;28;20165;-62
2022/12/25 12:48:14;;;;;;;0.00;0.00;;;15.90;99.90;;;;;;5050514;28;20174;-62
2022/12/25 12:50:41;;;;;;;0.00;0.00;;;15.90;99.90;;;;;;5051795;28;20165;-62
2022/12/25 12:53:22;;;;;;;0.00;0.00;;;15.80;99.90;;;;;;5046037;28;20676;-62
2022/12/25 12:55:49;;;;;;;0.00;0.00;;;15.80;99.90;;;;;;5031870;28;20182;-62
2022/12/25 12:58:33;;;;;;;0.03;0.03;;;15.80;99.90;;;;;;5031869;28;20182;-63
2022/12/25 13:01:07;;;;;;;0.00;0.00;;;15.80;99.90;;;;;;5031738;28;20654;-62
2022/12/25 13:03:55;;;;;;;0.00;0.00;;;15.80;99.90;;;;;;5040044;28;20259;-62
2022/12/25 13:06:31;;;;;;;0.32;0.20;;;15.80;99.90;;;;;;5051663;28;20636;-63
2022/12/25 13:09:13;;;;;;;0.00;0.00;;;15.80;99.90;;;;;;5055586;28;20185;-63
2022/12/25 13:11:41;;;;;;;0.00;0.00;;;15.80;99.90;;;;;;5055467;28;20209;-63
2022/12/25 13:14:19;;;;;;;0.00;0.00;;;15.80;99.90;;;;;;5055501;28;20744;-63
2022/12/25 13:16:47;;;;;;;0.00;0.00;;;15.80;99.90;;;;;;5055396;28;20254;-63
2022/12/25 13:19:15;;;;;;;0.00;0.00;;;15.80;99.90;;;;;;5055067;28;20562;-63
2022/12/25 13:21:57;;;;;;;0.00;0.00;;;15.70;99.90;;;;;;5054949;28;20537;-63
2022/12/25 13:24:28;;;;;;;0.00;0.00;;;15.70;99.90;;;;;;5055042;28;20205;-64
2022/12/25 13:26:54;;;;;;;0.08;0.08;;;15.70;99.90;;;;;;5054070;28;20182;-65
2022/12/25 13:29:32;;;;;;;0.00;0.00;;;15.70;99.90;;;;;;5054903;28;20615;-65
2022/12/25 13:32:00;;;;;;;0.00;0.00;;;15.60;99.90;;;;;;5044046;28;20193;-64
2022/12/25 13:34:36;;;;;;;0.00;0.00;;;15.60;99.90;;;;;;5054725;28;20221;-63
2022/12/25 13:37:29;;;;;;;0.00;0.00;;;15.70;99.90;;;;;;5054441;28;20181;-63
2022/12/25 13:40:04;;;;;;;0.10;0.10;;;15.60;99.90;;;;;;5033800;28;20517;-65
2022/12/25 13:42:35;;;;;;;0.05;0.05;;;15.50;99.90;;;;;;5051226;28;20220;-64
2022/12/25 13:45:14;;;;;;;0.28;0.28;;;15.50;99.90;;;;;;5054688;28;20227;-64
2022/12/25 13:47:44;;;;;;;0.00;0.00;;;15.60;99.90;;;;;;5040228;28;20185;-64
2022/12/25 13:50:27;;;;;;;0.00;0.00;;;15.60;99.90;;;;;;5034712;28;20260;-63
2022/12/25 13:52:54;;;;;;;0.15;0.08;;;15.60;99.90;;;;;;5034506;28;20277;-64
2022/12/25 13:55:26;;;;;;;0.00;0.00;;;15.60;99.90;;;;;;5034448;28;20225;-64
2022/12/25 13:57:57;;;;;;;0.10;0.10;;;15.60;99.90;;;;;;5033311;28;20185;-64
2022/12/25 14:00:27;;;;;;;0.00;0.00;;;15.60;99.90;;;;;;5053432;28;20226;-64
2022/12/25 14:02:53;;;;;;;0.00;0.00;;;15.60;99.90;;;;;;5054335;28;20532;-65
2022/12/25 14:05:34;;;;;;;0.00;0.00;;;15.60;99.90;;;;;;5054194;28;20322;-64
2022/12/25 14:08:02;;;;;;;0.00;0.00;;;15.60;99.90;;;;;;5053923;28;20185;-65
2022/12/25 14:10:38;;;;;;;0.10;0.10;;;15.60;99.90;;;;;;5053961;28;20648;-65
2022/12/25 14:13:09;;;;;;;0.03;0.00;;;15.60;99.90;;;;;;5042387;28;20752;-65
2022/12/25 14:15:37;;;;;;;0.00;0.00;;;15.50;99.90;;;;;;5054083;28;20201;-65
2022/12/25 14:18:03;;;;;;;0.00;0.00;;;15.50;99.90;;;;;;5051307;28;20269;-65
2022/12/25 14:20:36;;;;;;;0.00;0.00;;;15.50;99.90;;;;;;5053418;28;20712;-65
2022/12/25 14:23:03;;;;;;;0.00;0.00;;;15.40;99.90;;;;;;5053435;28;20181;-65
2022/12/25 14:25:33;;;;;;;0.10;0.10;;;15.40;99.90;;;;;;5053846;28;20181;-65
2022/12/25 14:28:03;;;;;;;0.10;0.10;;;15.40;99.90;;;;;;5053271;28;20637;-64
2022/12/25 14:30:28;;;;;;;0.65;0.13;;;15.30;99.90;;;;;;5053908;28;20227;-63
2022/12/25 14:32:55;;;;;;;0.00;0.00;;;15.20;99.90;;;;;;5053209;28;20260;-63
2022/12/25 14:35:22;;;;;;;0.00;0.00;;;15.10;99.90;;;;;;5047497;28;20217;-63
2022/12/25 14:37:59;;;;;;;0.00;0.00;;;15.10;99.90;;;;;;5053432;28;20539;-63
2022/12/25 14:40:26;;;;;;;0.00;0.00;;;15.00;99.90;;;;;;5053423;28;20185;-63
2022/12/25 14:42:56;;;;;;;0.00;0.00;;;14.90;99.90;;;;;;5053364;28;20174;-63
2022/12/25 14:45:39;;;;;;;0.00;0.00;;;14.90;99.90;;;;;;5053456;28;20174;-64
2022/12/25 14:48:20;;;;;;;0.00;0.00;;;14.80;99.90;;;;;;5053204;28;20580;-63